Time;durP1;ratioP1;P1;durP2;ratioP2;P2;SDS_P1;SDS_P2;PMS_P1;PMS_P2;Temp;Humidity;BMP_temperature;BMP_pressure;BME280_temperature;BME280_humidity;BME280_pressure;Samples;Min_cycle;Max_cycle;Signal;HPM_P1;HPM_P2
2023/08/11 00:01:15;;;;;;;19.52;8.10;;;;;;;17.31;100.00;101842.16;5062778;28;20446;-71
2023/08/11 00:03:43;;;;;;;19.25;7.90;;;;;;;17.29;100.00;101845.78;5065491;28;20081;-68
2023/08/11 00:06:08;;;;;;;19.65;7.95;;;;;;;17.24;100.00;101848.44;5058098;28;20104;-66
2023/08/11 00:08:36;;;;;;;19.13;7.95;;;;;;;17.26;100.00;101857.38;5065455;28;20432;-67
2023/08/11 00:11:02;;;;;;;19.30;8.05;;;;;;;17.18;100.00;101848.50;5062590;28;20024;-67
2023/08/11 00:13:27;;;;;;;20.33;8.50;;;;;;;17.22;100.00;101847.59;5063884;28;20119;-67
2023/08/11 00:15:53;;;;;;;20.30;8.98;;;;;;;17.17;100.00;101842.28;5063984;28;20060;-67
2023/08/11 00:18:19;;;;;;;20.60;8.65;;;;;;;17.11;100.00;101846.78;5062652;28;20036;-67
2023/08/11 00:20:45;;;;;;;20.25;8.70;;;;;;;17.05;100.00;101850.38;5064887;28;20024;-68
2023/08/11 00:23:10;;;;;;;19.10;8.52;;;;;;;16.97;100.00;101850.44;5061996;28;20070;-70
2023/08/11 00:25:36;;;;;;;21.35;8.77;;;;;;;16.98;100.00;101843.28;5064881;28;20430;-67
2023/08/11 00:28:01;;;;;;;20.70;9.13;;;;;;;17.00;100.00;101844.19;5062429;28;20039;-67
2023/08/11 00:30:26;;;;;;;20.52;9.10;;;;;;;16.97;100.00;101845.09;5063503;28;20423;-67
2023/08/11 00:32:52;;;;;;;19.45;8.60;;;;;;;16.89;100.00;101845.16;5063597;28;20044;-67
2023/08/11 00:35:17;;;;;;;19.25;8.68;;;;;;;16.82;100.00;101850.47;5062234;28;20106;-67
2023/08/11 00:37:43;;;;;;;20.92;9.27;;;;;;;16.82;100.00;101850.47;5064796;28;20067;-68
2023/08/11 00:40:09;;;;;;;19.85;9.25;;;;;;;16.75;100.00;101846.97;5061443;28;20025;-67
2023/08/11 00:42:35;;;;;;;20.40;9.32;;;;;;;16.76;100.00;101845.19;5064446;28;20060;-67
2023/08/11 00:45:00;;;;;;;19.88;9.50;;;;;;;16.74;100.00;101851.41;5062365;28;20024;-68
2023/08/11 00:47:26;;;;;;;20.33;9.82;;;;;;;16.67;100.00;101840.78;5063067;28;20063;-68
2023/08/11 00:49:52;;;;;;;20.33;10.27;;;;;;;16.55;100.00;101836.38;5063651;28;20086;-67
2023/08/11 00:52:18;;;;;;;20.33;10.30;;;;;;;16.49;100.00;101837.28;5061835;28;20033;-67
2023/08/11 00:54:44;;;;;;;21.00;10.70;;;;;;;16.41;100.00;101832.88;5064354;28;20029;-67
2023/08/11 00:57:09;;;;;;;21.90;11.50;;;;;;;16.43;100.00;101823.13;5061499;28;20036;-68
2023/08/11 00:59:35;;;;;;;22.45;10.48;;;;;;;16.39;100.00;101819.56;5064240;28;20434;-67
2023/08/11 01:02:01;;;;;;;21.17;10.60;;;;;;;16.37;100.00;101814.22;5062093;28;20059;-67
2023/08/11 01:04:26;;;;;;;21.63;11.15;;;;;;;16.31;100.00;101808.94;5063389;28;20025;-67
2023/08/11 01:07:10;;;;;;;22.67;11.52;;;;;;;16.29;100.00;101813.38;5063132;28;20115;-67
2023/08/11 01:09:48;;;;;;;21.83;11.02;;;;;;;16.22;100.00;101819.63;5064234;28;20025;-68
2023/08/11 01:12:25;;;;;;;22.20;11.48;;;;;;;16.12;100.00;101815.22;5057636;28;20044;-67
2023/08/11 01:15:19;;;;;;;20.85;11.23;;;;;;;16.09;100.00;101815.22;5063236;28;20028;-68
2023/08/11 01:17:47;;;;;;;22.40;11.65;;;;;;;15.96;100.00;101809.94;5057929;28;20025;-67
2023/08/11 01:20:16;;;;;;;21.65;11.70;;;;;;;15.97;100.00;101801.03;5064449;28;20025;-68
2023/08/11 01:22:44;;;;;;;22.20;11.55;;;;;;;16.04;100.00;101805.44;5061112;28;20063;-67
2023/08/11 01:25:10;;;;;;;20.90;11.30;;;;;;;16.02;100.00;101804.56;5056931;28;20025;-68
2023/08/11 01:27:42;;;;;;;22.40;12.10;;;;;;;15.98;100.00;101794.81;5063923;28;20029;-67
2023/08/11 01:30:10;;;;;;;21.85;11.70;;;;;;;15.94;100.00;101803.69;5056715;28;20025;-68
2023/08/11 01:32:36;;;;;;;21.30;11.63;;;;;;;15.94;100.00;101800.16;5063853;28;20119;-67
2023/08/11 01:35:04;;;;;;;20.75;11.43;;;;;;;15.89;100.00;101804.59;5061922;28;20420;-67
2023/08/11 01:37:31;;;;;;;21.45;11.82;;;;;;;15.95;100.00;101802.81;5063100;28;20044;-67
2023/08/11 01:39:57;;;;;;;21.50;11.65;;;;;;;15.88;100.00;101811.72;5062258;28;20498;-67
2023/08/11 01:42:22;;;;;;;22.20;12.30;;;;;;;15.83;100.00;101808.19;5061825;28;20087;-67
2023/08/11 01:44:48;;;;;;;21.17;11.90;;;;;;;15.84;100.00;101808.19;5063669;28;20479;-67
2023/08/11 01:47:15;;;;;;;22.50;12.02;;;;;;;15.88;100.00;101803.72;5060811;28;20503;-67
2023/08/11 01:49:42;;;;;;;22.48;12.15;;;;;;;15.87;100.00;101801.94;5064357;28;20111;-71
2023/08/11 01:52:08;;;;;;;22.48;13.13;;;;;;;15.89;100.00;101807.28;5060784;28;20033;-67
2023/08/11 01:54:34;;;;;;;22.08;12.77;;;;;;;15.82;100.00;101801.97;5063257;28;20036;-67
2023/08/11 01:56:59;;;;;;;23.35;12.88;;;;;;;15.78;100.00;101801.94;5061745;28;20021;-67
2023/08/11 01:59:25;;;;;;;21.77;13.00;;;;;;;15.79;100.00;101793.97;5062383;28;20036;-67
2023/08/11 02:01:51;;;;;;;22.15;12.98;;;;;;;15.78;100.00;101796.63;5064367;28;20031;-67
2023/08/11 02:04:17;;;;;;;24.02;13.10;;;;;;;15.75;100.00;101793.97;5064839;28;20487;-67
2023/08/11 02:06:45;;;;;;;23.75;13.07;;;;;;;15.73;100.00;101790.38;5067972;28;20025;-67
2023/08/11 02:09:12;;;;;;;21.48;12.40;;;;;;;15.64;100.00;101783.28;5060455;28;20075;-67
2023/08/11 02:11:38;;;;;;;22.30;13.20;;;;;;;15.58;100.00;101791.31;5067746;28;20043;-67
2023/08/11 02:14:06;;;;;;;22.25;12.68;;;;;;;15.54;100.00;101790.44;5064855;28;20112;-67
2023/08/11 02:16:32;;;;;;;21.83;12.88;;;;;;;15.57;100.00;101785.09;5066753;28;20029;-67
2023/08/11 02:18:59;;;;;;;23.08;13.40;;;;;;;15.55;100.00;101781.53;5065752;28;20031;-67
2023/08/11 02:21:26;;;;;;;23.83;14.50;;;;;;;15.51;100.00;101787.78;5065668;28;20369;-66
2023/08/11 02:23:51;;;;;;;23.98;13.73;;;;;;;15.49;100.00;101779.78;5066440;28;20032;-67
2023/08/11 02:26:17;;;;;;;22.25;13.45;;;;;;;15.47;100.00;101780.69;5064257;28;20376;-68
2023/08/11 02:28:42;;;;;;;24.83;14.25;;;;;;;15.36;100.00;101779.78;5067588;28;20024;-67
2023/08/11 02:31:10;;;;;;;23.10;14.05;;;;;;;15.31;100.00;101778.00;5063667;28;20044;-71
2023/08/11 02:33:36;;;;;;;22.92;13.60;;;;;;;15.37;100.00;101781.56;5066793;28;20055;-67
2023/08/11 02:36:02;;;;;;;22.73;14.00;;;;;;;15.26;100.00;101790.47;5064980;28;20104;-67
2023/08/11 02:38:27;;;;;;;23.35;14.18;;;;;;;15.30;100.00;101794.00;5065585;28;20055;-66
2023/08/11 02:40:53;;;;;;;23.70;14.00;;;;;;;15.29;100.00;101795.78;5066072;28;20464;-67
2023/08/11 02:43:18;;;;;;;22.75;14.07;;;;;;;15.25;100.00;101794.00;5064195;28;20440;-67
2023/08/11 02:45:43;;;;;;;22.45;13.90;;;;;;;15.27;100.00;101802.88;5067145;28;20082;-67
2023/08/11 02:48:09;;;;;;;23.67;14.20;;;;;;;15.21;100.00;101794.88;5063724;28;20029;-67
2023/08/11 02:50:34;;;;;;;23.85;13.82;;;;;;;15.25;100.00;101794.00;5066277;28;20043;-67
2023/08/11 02:52:59;;;;;;;23.67;13.70;;;;;;;15.18;100.00;101794.88;5064678;28;20060;-67
2023/08/11 02:55:25;;;;;;;22.48;13.15;;;;;;;15.25;100.00;101796.66;5063869;28;20537;-67
2023/08/11 02:57:50;;;;;;;25.38;13.93;;;;;;;15.24;100.00;101800.22;5066164;28;20419;-67
2023/08/11 03:00:17;;;;;;;23.85;13.27;;;;;;;15.21;100.00;101794.00;5063561;28;20027;-68
2023/08/11 03:02:46;;;;;;;23.25;14.40;;;;;;;15.19;100.00;101796.69;5066924;28;20032;-67
2023/08/11 03:05:11;;;;;;;23.33;13.02;;;;;;;15.15;100.00;101789.56;5059397;28;20078;-67
2023/08/11 03:07:40;;;;;;;23.63;14.23;;;;;;;15.07;100.00;101796.66;5066345;28;20032;-69
2023/08/11 03:10:07;;;;;;;22.50;13.48;;;;;;;14.97;100.00;101783.34;5063843;28;20048;-67
2023/08/11 03:12:33;;;;;;;23.08;14.60;;;;;;;14.94;100.00;101783.34;5064885;28;20036;-67
2023/08/11 03:14:58;;;;;;;22.90;13.65;;;;;;;14.86;100.00;101778.91;5064031;28;20104;-67
2023/08/11 03:17:24;;;;;;;25.58;15.23;;;;;;;14.85;100.00;101778.00;5064493;28;20070;-68
2023/08/11 03:19:49;;;;;;;24.10;15.00;;;;;;;14.87;100.00;101781.56;5065789;28;20025;-67
2023/08/11 03:22:18;;;;;;;23.92;14.20;;;;;;;14.86;100.00;101786.88;5061648;28;20127;-67
2023/08/11 03:24:46;;;;;;;23.20;13.90;;;;;;;14.74;100.00;101791.28;5066604;28;20098;-67
2023/08/11 03:27:15;;;;;;;22.42;13.25;;;;;;;14.73;100.00;101778.84;5058881;28;20464;-67
2023/08/11 03:29:40;;;;;;;23.35;14.07;;;;;;;14.74;100.00;101780.66;5058765;28;20028;-70
2023/08/11 03:32:06;;;;;;;23.15;14.52;;;;;;;14.66;100.00;101781.50;5065566;28;20052;-67
2023/08/11 03:34:31;;;;;;;23.35;13.32;;;;;;;14.63;100.00;101783.28;5063684;28;20029;-67
2023/08/11 03:36:57;;;;;;;23.55;13.63;;;;;;;14.59;100.00;101780.56;5064647;28;20396;-69
2023/08/11 03:39:22;;;;;;;23.08;13.77;;;;;;;14.49;100.00;101771.69;5065099;28;20024;-66
2023/08/11 03:41:49;;;;;;;24.67;14.00;;;;;;;14.50;100.00;101785.88;5062960;28;20033;-66
2023/08/11 03:44:15;;;;;;;22.45;13.50;;;;;;;14.50;100.00;101776.09;5065928;28;20028;-67
2023/08/11 03:46:40;;;;;;;23.38;14.90;;;;;;;14.46;100.00;101779.66;5062597;28;20029;-67
2023/08/11 03:49:06;;;;;;;25.20;15.68;;;;;;;14.43;100.00;101777.88;5065285;28;20085;-67
2023/08/11 03:51:32;;;;;;;24.75;16.42;;;;;;;14.39;100.00;101777.88;5063381;28;20035;-67
2023/08/11 03:53:59;;;;;;;25.10;16.45;;;;;;;14.44;100.00;101778.75;5064163;28;20041;-67
2023/08/11 03:56:24;;;;;;;25.83;17.35;;;;;;;14.41;100.00;101776.09;5064383;28;20052;-67
2023/08/11 03:58:50;;;;;;;24.45;16.27;;;;;;;14.43;100.00;101785.84;5062935;28;20095;-67
2023/08/11 04:01:16;;;;;;;24.40;16.00;;;;;;;14.37;100.00;101780.53;5065740;28;20029;-66
2023/08/11 04:03:42;;;;;;;24.83;15.90;;;;;;;14.37;100.00;101776.97;5062012;28;20035;-67
2023/08/11 04:06:07;;;;;;;23.45;15.02;;;;;;;14.35;100.00;101773.41;5065320;28;20030;-67
2023/08/11 04:08:33;;;;;;;25.73;17.20;;;;;;;14.33;100.00;101775.16;5062980;28;20021;-73
2023/08/11 04:10:58;;;;;;;23.63;14.63;;;;;;;14.29;100.00;101780.47;5062507;28;20064;-73
2023/08/11 04:13:24;;;;;;;23.27;14.60;;;;;;;14.29;100.00;101783.13;5064496;28;20020;-73
2023/08/11 04:15:49;;;;;;;24.42;14.77;;;;;;;14.29;100.00;101782.25;5062345;28;20476;-73
2023/08/11 04:18:15;;;;;;;24.25;15.05;;;;;;;14.21;100.00;101784.91;5065195;28;20029;-73
2023/08/11 04:20:40;;;;;;;24.88;14.57;;;;;;;14.26;100.00;101785.78;5057894;28;20384;-73
2023/08/11 04:23:06;;;;;;;23.98;14.77;;;;;;;14.18;100.00;101776.88;5064463;28;20035;-73
2023/08/11 04:25:31;;;;;;;24.50;15.30;;;;;;;14.15;100.00;101783.97;5062564;28;20048;-74
2023/08/11 04:27:57;;;;;;;25.80;15.50;;;;;;;14.16;100.00;101788.41;5063394;28;20052;-72
2023/08/11 04:30:23;;;;;;;23.83;15.13;;;;;;;14.19;100.00;101781.31;5063627;28;20036;-73
2023/08/11 04:32:48;;;;;;;24.50;15.32;;;;;;;14.25;100.00;101786.66;5061745;28;20049;-73
2023/08/11 04:35:13;;;;;;;25.70;15.32;;;;;;;14.22;100.00;101781.34;5065186;28;20086;-73
2023/08/11 04:37:39;;;;;;;24.30;16.13;;;;;;;14.23;100.00;101782.25;5061597;28;20048;-74
2023/08/11 04:40:13;;;;;;;25.52;15.80;;;;;;;14.21;100.00;101789.31;5064028;28;20084;-73
2023/08/11 04:42:38;;;;;;;24.63;14.77;;;;;;;14.20;100.00;101788.44;5060659;28;20086;-73
2023/08/11 04:45:04;;;;;;;23.63;15.32;;;;;;;14.18;100.00;101787.50;5063915;28;20357;-74
2023/08/11 04:47:30;;;;;;;23.02;14.73;;;;;;;14.24;100.00;101784.00;5062816;28;20420;-73
2023/08/11 04:49:55;;;;;;;24.13;15.95;;;;;;;14.17;100.00;101777.78;5062909;28;20029;-73
2023/08/11 04:52:21;;;;;;;24.92;15.60;;;;;;;14.18;100.00;101774.22;5064144;28;20171;-73
2023/08/11 04:54:46;;;;;;;24.67;15.43;;;;;;;14.23;100.00;101776.91;5061530;28;20506;-73
2023/08/11 04:57:12;;;;;;;24.38;14.98;;;;;;;14.23;100.00;101772.47;5064910;28;20028;-74
2023/08/11 04:59:37;;;;;;;23.40;15.40;;;;;;;14.28;100.00;101760.09;5061479;28;20591;-73
2023/08/11 05:02:03;;;;;;;24.02;14.90;;;;;;;14.30;100.00;101757.44;5063632;28;20079;-73
2023/08/11 05:04:28;;;;;;;23.05;14.45;;;;;;;14.33;100.00;101754.78;5062988;28;20495;-73
2023/08/11 05:06:53;;;;;;;24.75;15.52;;;;;;;14.38;100.00;101749.47;5062224;28;20029;-73
2023/08/11 05:09:18;;;;;;;26.20;16.33;;;;;;;14.39;100.00;101748.63;5064130;28;20025;-73
2023/08/11 05:11:44;;;;;;;25.83;16.30;;;;;;;14.42;100.00;101748.63;5061019;28;20376;-73
2023/08/11 05:14:09;;;;;;;27.35;16.73;;;;;;;14.42;100.00;101752.16;5064092;28;20029;-73
2023/08/11 05:16:35;;;;;;;25.05;16.88;;;;;;;14.45;100.00;101756.59;5062168;28;20060;-73
2023/08/11 05:19:00;;;;;;;26.58;17.42;;;;;;;14.48;100.00;101752.16;5062822;28;20494;-73
2023/08/11 05:21:25;;;;;;;25.92;17.00;;;;;;;14.59;100.00;101753.94;5062957;28;20078;-70
2023/08/11 05:23:51;;;;;;;27.00;17.75;;;;;;;14.65;100.00;101748.72;5062019;28;20040;-69
2023/08/11 05:26:16;;;;;;;31.33;17.65;;;;;;;14.69;100.00;101746.91;5064094;28;20452;-68
2023/08/11 05:28:42;;;;;;;31.52;17.88;;;;;;;14.70;100.00;101751.38;5060722;28;20029;-67
2023/08/11 05:31:08;;;;;;;27.15;16.90;;;;;;;14.86;100.00;101747.84;5063638;28;20044;-67
2023/08/11 05:33:34;;;;;;;26.60;16.90;;;;;;;14.97;100.00;101746.06;5061786;28;20094;-67
2023/08/11 05:36:00;;;;;;;27.15;17.00;;;;;;;15.09;100.00;101739.84;5062764;28;20037;-67
2023/08/11 05:38:25;;;;;;;26.60;17.20;;;;;;;15.20;100.00;101741.63;5067275;28;20031;-67
2023/08/11 05:40:50;;;;;;;26.17;16.13;;;;;;;15.25;100.00;101743.41;5065813;28;20060;-67
2023/08/11 05:43:16;;;;;;;24.85;16.00;;;;;;;15.38;100.00;101738.03;5067185;28;20529;-67
2023/08/11 05:45:41;;;;;;;26.70;15.98;;;;;;;15.46;100.00;101744.25;5064682;28;20033;-67
2023/08/11 05:48:07;;;;;;;26.45;16.38;;;;;;;15.49;100.00;101749.56;5067542;28;20082;-67
2023/08/11 05:50:32;;;;;;;25.70;15.93;;;;;;;15.61;100.00;101738.00;5066019;28;20028;-67
2023/08/11 05:52:57;;;;;;;24.48;14.32;;;;;;;15.63;100.00;101737.13;5066099;28;20036;-67
2023/08/11 05:55:23;;;;;;;24.00;14.43;;;;;;;15.72;100.00;101735.31;5067156;28;20495;-67
2023/08/11 05:57:49;;;;;;;24.33;13.93;;;;;;;15.77;100.00;101742.44;5065035;28;20087;-67
2023/08/11 06:00:17;;;;;;;24.42;14.07;;;;;;;15.83;100.00;101747.75;5067992;28;20464;-66
2023/08/11 06:02:43;;;;;;;24.02;13.27;;;;;;;15.92;100.00;101741.50;5060491;28;20044;-66
2023/08/11 06:05:08;;;;;;;25.38;13.50;;;;;;;16.02;100.00;101740.56;5067514;28;20028;-67
2023/08/11 06:07:33;;;;;;;23.90;12.45;;;;;;;16.11;100.00;101750.31;5065370;28;20104;-68
2023/08/11 06:09:59;;;;;;;24.17;13.70;;;;;;;16.21;100.00;101749.38;5066197;28;20036;-67
2023/08/11 06:12:25;;;;;;;24.73;13.77;;;;;;;16.28;100.00;101747.59;5066718;28;20605;-67
2023/08/11 06:14:50;;;;;;;25.02;13.20;;;;;;;16.36;100.00;101740.41;5064671;28;20059;-67
2023/08/11 06:17:15;;;;;;;24.27;12.77;;;;;;;16.44;100.00;101747.47;5067686;28;20403;-67
2023/08/11 06:19:41;;;;;;;24.40;13.10;;;;;;;16.53;100.00;101743.00;5064377;28;20021;-74
2023/08/11 06:22:06;;;;;;;23.73;12.18;;;;;;;16.62;100.00;101742.03;5066938;28;20174;-68
2023/08/11 06:24:32;;;;;;;23.85;12.63;;;;;;;16.71;100.00;101751.78;5065548;28;20060;-67
2023/08/11 06:26:57;;;;;;;22.73;11.95;;;;;;;16.79;100.00;101741.03;5064096;28;20036;-70
2023/08/11 06:29:23;;;;;;;23.42;11.95;;;;;;;16.89;100.00;101737.41;5066398;28;20020;-67
2023/08/11 06:31:48;;;;;;;23.55;11.75;;;;;;;16.98;100.00;101742.72;5064079;28;20048;-67
2023/08/11 06:34:17;;;;;;;22.58;11.45;;;;;;;17.06;100.00;101746.19;5067222;28;20090;-67
2023/08/11 06:36:43;;;;;;;23.48;11.07;;;;;;;17.14;100.00;101739.91;5059789;28;20025;-67
2023/08/11 06:39:10;;;;;;;22.73;10.60;;;;;;;17.22;100.00;101748.75;5067017;28;20033;-67
2023/08/11 06:41:35;;;;;;;21.13;9.77;;;;;;;17.31;100.00;101747.75;5064467;28;20035;-68
2023/08/11 06:44:01;;;;;;;21.50;9.48;;;;;;;17.43;100.00;101748.53;5065603;28;20024;-67
2023/08/11 06:46:26;;;;;;;21.92;9.52;;;;;;;17.51;100.00;101755.59;5064745;28;20447;-69
2023/08/11 06:48:52;;;;;;;21.30;9.35;;;;;;;17.62;100.00;101759.06;5064144;28;20064;-68
2023/08/11 06:51:17;;;;;;;21.38;9.00;;;;;;;17.68;100.00;101766.09;5066932;28;20090;-68
2023/08/11 06:53:42;;;;;;;20.23;8.60;;;;;;;17.77;100.00;101763.34;5063714;28;20045;-68
2023/08/11 06:56:08;;;;;;;20.63;8.48;;;;;;;17.88;100.00;101766.78;5065148;28;20056;-67
2023/08/11 06:58:33;;;;;;;21.10;8.32;;;;;;;17.97;100.00;101764.91;5064536;28;20463;-68
2023/08/11 07:00:59;;;;;;;20.55;7.85;;;;;;;18.10;100.00;101770.13;5065041;28;20079;-69
2023/08/11 07:03:25;;;;;;;20.85;8.18;;;;;;;18.18;100.00;101767.34;5065701;28;20518;-69
2023/08/11 07:05:51;;;;;;;21.95;8.63;;;;;;;18.24;100.00;101769.06;5063717;28;20052;-67
2023/08/11 07:08:18;;;;;;;20.25;8.40;;;;;;;18.32;100.00;101756.47;5066958;28;20032;-68
2023/08/11 07:10:43;;;;;;;20.25;7.95;;;;;;;18.37;100.00;101765.31;5059157;28;20033;-67
2023/08/11 07:13:08;;;;;;;20.13;7.53;;;;;;;18.46;100.00;101770.53;5065965;28;20494;-67
2023/08/11 07:15:34;;;;;;;19.42;7.15;;;;;;;18.57;100.00;101764.16;5064446;28;20031;-67
2023/08/11 07:17:59;;;;;;;20.60;7.85;;;;;;;18.64;100.00;101765.84;5064580;28;20025;-67
2023/08/11 07:20:25;;;;;;;20.27;7.55;;;;;;;18.76;100.00;101767.44;5065589;28;20036;-67
2023/08/11 07:22:51;;;;;;;20.33;7.40;;;;;;;18.85;100.00;101761.06;5063392;28;20434;-68
2023/08/11 07:25:16;;;;;;;19.70;6.93;;;;;;;18.93;100.00;101769.88;5066241;28;20039;-67
2023/08/11 07:27:42;;;;;;;18.83;6.70;;;;;;;19.08;100.00;101771.44;5063016;28;20104;-67
2023/08/11 07:30:08;;;;;;;19.33;6.32;;;;;;;19.19;100.00;101773.94;5065468;28;20368;-73
2023/08/11 07:32:33;;;;;;;18.75;6.07;;;;;;;19.34;100.00;101776.34;5029355;28;20514;-67
2023/08/11 07:34:59;;;;;;;18.90;6.43;;;;;;;19.46;100.00;101764.53;5064544;28;20025;-67
2023/08/11 07:37:24;;;;;;;19.88;6.22;;;;;;;19.57;100.00;101772.34;5065080;28;20033;-71
2023/08/11 07:39:49;;;;;;;21.38;6.18;;;;;;;19.72;100.00;101772.09;5062897;28;20092;-67
2023/08/11 07:42:15;;;;;;;17.38;5.85;;;;;;;19.85;100.00;101765.59;5066406;28;20514;-73
2023/08/11 07:44:40;;;;;;;17.60;6.22;;;;;;;19.91;100.00;101766.41;5061558;28;20384;-71
2023/08/11 07:47:05;;;;;;;19.00;5.80;;;;;;;19.94;100.00;101767.22;5064944;28;20024;-67
2023/08/11 07:49:31;;;;;;;18.67;6.20;;;;;;;20.01;100.00;101770.66;5064078;28;20387;-73
2023/08/11 07:51:57;;;;;;;18.67;6.30;;;;;;;20.19;100.00;101778.31;5063494;28;20037;-70
2023/08/11 07:54:23;;;;;;;17.45;5.60;;;;;;;20.36;100.00;101782.47;5065200;28;20035;-67
2023/08/11 07:56:49;;;;;;;17.48;6.13;;;;;;;20.49;100.00;101781.25;5062654;28;20044;-67
2023/08/11 07:59:15;;;;;;;18.00;5.68;;;;;;;20.65;100.00;101781.81;5065128;28;20463;-68
2023/08/11 08:01:41;;;;;;;18.27;5.70;;;;;;;20.73;100.00;101774.47;5062505;28;20511;-73
2023/08/11 08:04:07;;;;;;;17.40;5.53;;;;;;;20.78;100.00;101771.69;5064808;28;20029;-67
2023/08/11 08:06:32;;;;;;;17.50;5.65;;;;;;;20.88;100.00;101778.59;5063724;28;20463;-67
2023/08/11 08:08:58;;;;;;;17.83;5.55;;;;;;;21.09;100.00;101786.19;5062356;28;20086;-68
2023/08/11 08:11:24;;;;;;;18.58;5.90;;;;;;;21.24;100.00;101775.03;5064761;28;20052;-67
2023/08/11 08:13:50;;;;;;;18.05;5.40;;;;;;;21.31;100.00;101775.78;5061961;28;20114;-67
2023/08/11 08:16:15;;;;;;;17.38;5.80;;;;;;;21.33;100.00;101769.41;5065510;28;20028;-67
2023/08/11 08:18:41;;;;;;;20.42;5.93;;;;;;;21.42;100.00;101768.28;5062088;28;20538;-67
2023/08/11 08:21:06;;;;;;;17.20;5.60;;;;;;;21.56;100.00;101766.13;5064282;28;20040;-67
2023/08/11 08:23:31;;;;;;;18.08;5.50;;;;;;;21.85;100.00;101767.16;5063520;28;20115;-67
2023/08/11 08:25:57;;;;;;;16.58;5.57;;;;;;;22.44;100.00;101770.84;5062963;28;20079;-67
2023/08/11 08:28:23;;;;;;;18.55;5.53;;;;;;;23.14;100.00;101774.94;5064335;28;20032;-72
2023/08/11 08:30:48;;;;;;;16.88;5.20;;;;;;;23.85;100.00;101772.44;5061690;28;20498;-68
2023/08/11 08:33:13;;;;;;;16.60;5.10;;;;;;;24.32;100.00;101775.19;5064971;28;20037;-73
2023/08/11 08:35:39;;;;;;;16.33;4.78;;;;;;;24.53;100.00;101778.00;5062075;28;20025;-69
2023/08/11 08:38:05;;;;;;;15.95;4.95;;;;;;;24.89;100.00;101780.19;5063993;28;20384;-69
2023/08/11 08:40:32;;;;;;;17.67;4.95;;;;;;;25.24;100.00;101785.94;5063119;28;20024;-68
2023/08/11 08:42:58;;;;;;;16.13;5.13;;;;;;;25.66;100.00;101787.78;5062802;28;20033;-70
2023/08/11 08:45:24;;;;;;;15.63;4.95;;;;;;;25.73;100.00;101783.84;5060482;28;20029;-68
2023/08/11 08:47:52;;;;;;;16.98;4.90;;;;;;;25.66;100.00;101787.78;5063476;28;20031;-69
2023/08/11 08:50:18;;;;;;;15.77;4.80;;;;;;;26.21;100.00;101784.41;5061088;28;20037;-69
2023/08/11 08:52:43;;;;;;;17.20;4.80;;;;;;;26.42;100.00;101782.50;5064104;28;20434;-77
2023/08/11 08:55:09;;;;;;;16.77;4.72;;;;;;;26.47;100.00;101778.69;5063132;28;20033;-71
2023/08/11 08:57:35;;;;;;;13.10;4.53;;;;;;;27.03;100.00;101777.78;5061784;28;20032;-72
2023/08/11 09:00:00;;;;;;;13.77;4.35;;;;;;;27.34;100.00;101780.78;5064331;28;20031;-70
2023/08/11 09:02:27;;;;;;;13.90;4.68;;;;;;;27.60;89.91;101774.00;5061046;28;20480;-68
2023/08/11 09:04:53;;;;;;;16.10;4.93;;;;;;;27.58;96.50;101778.63;5060961;28;20083;-69
2023/08/11 09:07:20;;;;;;;16.42;4.65;;;;;;;27.75;89.14;101775.00;5060415;28;20098;-75
2023/08/11 09:09:46;;;;;;;15.15;4.57;;;;;;;28.13;89.01;101774.78;5063813;28;20043;-73
2023/08/11 09:12:11;;;;;;;11.57;4.00;;;;;;;28.23;84.16;101777.88;5062127;28;20028;-69
2023/08/11 09:14:38;;;;;;;13.63;4.28;;;;;;;27.79;87.89;101782.91;5060484;28;20035;-74
2023/08/11 09:17:05;;;;;;;13.80;4.30;;;;;;;27.22;100.00;101779.56;5061228;28;20092;-72
2023/08/11 09:19:31;;;;;;;11.77;4.20;;;;;;;26.80;100.00;101781.63;5063376;28;20024;-69
2023/08/11 09:21:56;;;;;;;12.35;4.20;;;;;;;26.63;100.00;101779.69;5062180;28;20037;-69
2023/08/11 09:24:23;;;;;;;15.02;4.53;;;;;;;27.05;100.00;101775.84;5061645;28;20028;-72
2023/08/11 09:26:51;;;;;;;14.70;4.30;;;;;;;27.70;99.41;101772.53;5063701;28;20029;-69
2023/08/11 09:29:17;;;;;;;14.18;4.10;;;;;;;29.13;84.65;101771.81;5062542;28;20415;-69
2023/08/11 09:31:47;;;;;;;11.75;3.90;;;;;;;30.21;82.50;101778.84;5062604;28;20045;-74
2023/08/11 09:34:19;;;;;;;14.10;4.25;;;;;;;30.60;68.67;101777.25;5063153;28;20483;-74
2023/08/11 09:36:45;;;;;;;;;;;;;;;30.49;77.79;101773.47;5061519;28;20086;-69
2023/08/11 09:39:11;;;;;;;12.00;3.90;;;;;;;29.65;67.38;101769.63;5062892;28;20372;-73
2023/08/11 09:41:42;;;;;;;13.10;4.00;;;;;;;29.49;67.02;101762.44;5062253;28;20100;-74
2023/08/11 09:44:09;;;;;;;12.80;4.30;;;;;;;28.93;67.37;101761.25;5062893;28;20048;-74
2023/08/11 09:46:38;;;;;;;13.10;4.10;;;;;;;28.22;82.52;101759.81;5062252;28;20029;-72
2023/08/11 09:49:05;;;;;;;13.50;3.90;;;;;;;27.96;81.17;101763.00;5061871;28;20033;-73
2023/08/11 09:51:33;;;;;;;13.43;3.60;;;;;;;28.17;81.53;101760.94;5063139;28;20031;-73
2023/08/11 09:54:03;;;;;;;9.73;3.50;;;;;;;29.07;77.21;101761.31;5061502;28;20372;-73
2023/08/11 09:56:29;;;;;;;12.73;3.70;;;;;;;30.09;74.01;101771.47;5063190;28;20375;-74
2023/08/11 09:58:57;;;;;;;12.88;3.90;;;;;;;30.99;71.83;101766.50;5061078;28;20033;-74
2023/08/11 10:01:24;;;;;;;11.38;3.80;;;;;;;32.49;58.75;101766.94;5064021;28;20083;-74
2023/08/11 10:03:52;;;;;;;12.50;3.80;;;;;;;32.62;58.04;101775.09;5056636;28;20032;-74
2023/08/11 10:06:26;;;;;;;10.63;3.60;;;;;;;32.06;55.29;101765.47;5063981;28;20040;-73
2023/08/11 10:08:56;;;;;;;13.15;3.90;;;;;;;32.10;55.04;101779.78;5057007;28;20036;-73
2023/08/11 10:11:25;;;;;;;9.98;3.55;;;;;;;31.91;55.11;101767.44;5056964;28;20025;-74
2023/08/11 10:13:53;;;;;;;9.80;3.50;;;;;;;31.45;53.29;101767.94;5056646;28;20519;-70
2023/08/11 10:16:18;;;;;;;13.35;3.58;;;;;;;32.35;59.07;101764.34;5056495;28;20033;-73
2023/08/11 10:18:44;;;;;;;11.50;3.80;;;;;;;32.41;53.01;101772.09;5063297;28;20035;-69
2023/08/11 10:21:10;;;;;;;12.00;3.60;;;;;;;32.69;51.93;101770.06;5061377;28;20082;-71
2023/08/11 10:23:36;;;;;;;11.52;3.50;;;;;;;33.24;56.04;101760.41;5064891;28;20578;-70
2023/08/11 10:26:02;;;;;;;12.48;3.60;;;;;;;33.82;47.66;101765.91;5066449;28;20037;-69
2023/08/11 10:28:28;;;;;;;9.95;3.22;;;;;;;34.90;46.74;101778.16;5064595;28;20446;-70
2023/08/11 10:30:55;;;;;;;12.10;3.40;;;;;;;34.27;45.28;101769.69;5067357;28;20119;-70
2023/08/11 10:33:21;;;;;;;9.15;3.20;;;;;;;33.62;47.64;101764.72;5063848;28;20460;-69
2023/08/11 10:35:46;;;;;;;7.80;3.10;;;;;;;33.06;46.20;101756.31;5067131;28;20116;-69
2023/08/11 10:38:11;;;;;;;11.00;3.07;;;;;;;32.34;49.00;101755.25;5064855;28;20086;-69
2023/08/11 10:40:40;;;;;;;9.77;3.30;;;;;;;32.72;49.49;101767.09;5065579;28;20370;-69
2023/08/11 10:43:06;;;;;;;9.60;3.10;;;;;;;33.08;49.90;101754.34;5065527;28;20041;-69
2023/08/11 10:45:33;;;;;;;8.77;3.40;;;;;;;34.16;44.76;101762.28;5064933;28;20029;-69
2023/08/11 10:47:59;;;;;;;11.98;3.00;;;;;;;34.63;47.57;101757.53;5066353;28;20036;-70
2023/08/11 10:50:26;;;;;;;8.38;3.13;;;;;;;34.67;45.53;101760.84;5063684;28;20025;-69
2023/08/11 10:53:20;;;;;;;9.30;3.13;;;;;;;34.51;45.23;101767.63;5067134;28;20064;-69
2023/08/11 10:56:02;;;;;;;8.85;3.00;;;;;;;34.14;46.47;101770.66;5066372;28;20075;-69
2023/08/11 10:58:32;;;;;;;7.82;3.20;;;;;;;34.57;45.93;101767.13;5061486;28;20047;-69
2023/08/11 11:00:59;;;;;;;7.28;3.15;;;;;;;35.32;43.46;101756.28;5066163;28;20033;-69
2023/08/11 11:03:25;;;;;;;7.47;3.20;;;;;;;35.94;41.86;101757.25;5063486;28;20499;-70